Time;durP1;ratioP1;P1;durP2;ratioP2;P2;SDS_P1;SDS_P2;PMS_P1;PMS_P2;Temp;Humidity;BMP_temperature;BMP_pressure;BME280_temperature;BME280_humidity;BME280_pressure;Samples;Min_cycle;Max_cycle;Signal;HPM_P1;HPM_P2
2022/06/09 00:02:03;;;;;;;26.23;9.43;;;14.70;99.90;;;;;;4965605;28;20082;-77
2022/06/09 00:04:36;;;;;;;20.50;8.90;;;14.70;99.90;;;;;;4992915;28;20041;-77
2022/06/09 00:07:21;;;;;;;22.05;8.95;;;14.70;99.90;;;;;;4992669;28;20056;-77
2022/06/09 00:10:18;;;;;;;24.20;8.80;;;14.60;99.90;;;;;;5003590;28;20041;-77
2022/06/09 00:12:44;;;;;;;26.33;9.13;;;14.60;99.90;;;;;;5005772;28;20050;-77
2022/06/09 00:15:13;;;;;;;25.88;8.10;;;14.60;99.90;;;;;;4982298;28;20052;-77
2022/06/09 00:17:40;;;;;;;22.13;8.57;;;14.60;99.90;;;;;;4974028;28;20513;-77
2022/06/09 00:20:06;;;;;;;19.73;8.75;;;14.60;99.90;;;;;;4982633;28;20042;-77
2022/06/09 00:22:32;;;;;;;24.77;8.02;;;14.50;99.90;;;;;;4993652;28;20046;-77
2022/06/09 00:24:58;;;;;;;21.00;8.15;;;14.50;99.90;;;;;;4986203;28;20034;-78
2022/06/09 00:27:29;;;;;;;20.40;7.90;;;14.50;99.90;;;;;;5007652;28;20061;-77
2022/06/09 00:29:54;;;;;;;20.17;7.88;;;14.50;99.90;;;;;;4977668;28;20041;-77
2022/06/09 00:32:20;;;;;;;16.98;7.47;;;14.40;99.90;;;;;;4986701;28;20030;-77
2022/06/09 00:34:46;;;;;;;19.33;7.90;;;14.40;99.90;;;;;;5010931;28;20066;-77
2022/06/09 00:37:12;;;;;;;23.42;7.97;;;14.40;99.90;;;;;;4976783;28;20116;-78
2022/06/09 00:39:37;;;;;;;17.50;7.35;;;14.30;99.90;;;;;;4975595;28;20049;-77
2022/06/09 00:42:05;;;;;;;22.33;7.15;;;14.30;99.90;;;;;;4995734;28;20049;-77
2022/06/09 00:44:31;;;;;;;18.98;7.43;;;14.20;99.90;;;;;;4996762;28;20046;-77
2022/06/09 00:47:30;;;;;;;21.65;6.90;;;14.20;99.90;;;;;;4980176;28;20490;-77
2022/06/09 00:50:18;;;;;;;20.13;6.82;;;14.20;99.90;;;;;;4995432;28;20044;-78
2022/06/09 00:52:53;;;;;;;21.63;7.30;;;14.20;99.90;;;;;;4985724;28;20049;-78
2022/06/09 00:55:22;;;;;;;18.85;6.85;;;14.10;99.90;;;;;;4977743;28;20073;-77
2022/06/09 00:57:53;;;;;;;19.15;6.85;;;14.10;99.90;;;;;;4993451;28;20073;-77
2022/06/09 01:00:23;;;;;;;15.63;6.38;;;14.20;99.90;;;;;;4975172;28;20100;-77
2022/06/09 01:02:52;;;;;;;21.95;6.63;;;14.10;99.90;;;;;;4982445;28;20042;-77
2022/06/09 01:05:21;;;;;;;23.35;7.43;;;14.10;99.90;;;;;;4968702;28;20068;-77
2022/06/09 01:07:51;;;;;;;17.33;6.45;;;14.80;99.90;;;;;;4993808;28;20049;-78
2022/06/09 01:10:17;;;;;;;21.98;6.90;;;14.00;99.90;;;;;;4992383;28;20380;-78
2022/06/09 01:12:45;;;;;;;21.23;6.95;;;14.00;99.90;;;;;;4970411;28;20046;-78
2022/06/09 01:15:18;;;;;;;22.60;7.18;;;14.00;99.90;;;;;;4991354;28;20390;-77
2022/06/09 01:17:55;;;;;;;18.80;7.03;;;13.90;99.90;;;;;;4989292;28;20042;-77
2022/06/09 01:20:37;;;;;;;25.30;7.28;;;13.90;99.90;;;;;;4991472;28;20030;-77
2022/06/09 01:23:31;;;;;;;20.70;6.78;;;13.90;99.90;;;;;;4990446;28;20096;-78
2022/06/09 01:26:11;;;;;;;21.83;6.60;;;13.90;99.90;;;;;;5001292;28;20037;-77
2022/06/09 01:28:46;;;;;;;21.92;6.93;;;13.90;99.90;;;;;;4988884;28;20861;-77
2022/06/09 01:31:25;;;;;;;16.80;7.35;;;13.80;99.90;;;;;;4992995;28;20046;-77
2022/06/09 01:34:14;;;;;;;20.42;7.00;;;13.70;99.90;;;;;;4993572;28;20042;-77
2022/06/09 01:36:51;;;;;;;17.55;7.55;;;13.80;99.90;;;;;;4946473;28;20046;-78
2022/06/09 01:39:26;;;;;;;18.15;7.38;;;13.80;99.90;;;;;;4991050;28;20053;-78
2022/06/09 01:41:52;;;;;;;21.35;7.07;;;13.80;99.90;;;;;;4991237;28;20120;-78
2022/06/09 01:44:18;;;;;;;22.63;8.10;;;14.00;99.90;;;;;;4996760;28;20121;-77
2022/06/09 01:46:49;;;;;;;24.13;7.38;;;13.90;99.90;;;;;;4994332;28;20068;-78
2022/06/09 01:49:21;;;;;;;20.92;7.30;;;13.70;99.90;;;;;;4977299;28;20056;-77
2022/06/09 01:51:49;;;;;;;21.00;6.97;;;13.70;99.90;;;;;;4976257;28;20034;-78
2022/06/09 01:54:23;;;;;;;22.38;7.93;;;13.70;99.90;;;;;;4981189;28;20038;-78
2022/06/09 01:56:57;;;;;;;22.58;7.47;;;13.60;99.90;;;;;;4996477;28;20478;-78
2022/06/09 01:59:31;;;;;;;21.63;7.75;;;13.70;99.90;;;;;;5000130;28;20049;-77
2022/06/09 02:02:03;;;;;;;22.92;8.10;;;13.60;99.90;;;;;;4996625;28;20168;-78
2022/06/09 02:04:40;;;;;;;25.17;8.05;;;13.60;99.90;;;;;;4997859;28;20376;-78
2022/06/09 02:07:08;;;;;;;21.67;8.20;;;13.70;99.90;;;;;;4994970;28;20396;-77
2022/06/09 02:09:37;;;;;;;21.30;7.80;;;13.60;99.90;;;;;;4991602;28;20042;-78
2022/06/09 02:12:29;;;;;;;23.63;8.10;;;13.60;99.90;;;;;;4997307;28;20042;-78
2022/06/09 02:14:58;;;;;;;24.92;8.20;;;13.60;99.90;;;;;;4976906;28;20057;-78
2022/06/09 02:17:24;;;;;;;22.48;7.95;;;13.50;99.90;;;;;;4995383;28;20038;-78
2022/06/09 02:19:51;;;;;;;23.73;8.20;;;13.50;99.90;;;;;;4979902;28;20045;-78
2022/06/09 02:22:17;;;;;;;30.38;8.60;;;13.50;99.90;;;;;;4976040;28;20041;-78
2022/06/09 02:24:43;;;;;;;27.05;8.60;;;13.50;99.90;;;;;;4988982;28;20034;-77
2022/06/09 02:27:09;;;;;;;22.52;8.38;;;13.50;99.90;;;;;;5012523;28;20086;-78
2022/06/09 02:29:35;;;;;;;25.88;8.50;;;13.50;99.90;;;;;;4988672;28;20478;-77
2022/06/09 02:32:01;;;;;;;23.65;8.43;;;13.50;99.90;;;;;;5009362;28;20073;-78
2022/06/09 02:34:27;;;;;;;22.83;8.57;;;13.50;99.90;;;;;;4995781;28;20398;-78
2022/06/09 02:36:52;;;;;;;22.70;8.38;;;13.50;99.90;;;;;;4987476;28;20038;-78
2022/06/09 02:39:18;;;;;;;25.75;8.70;;;13.50;99.90;;;;;;5014386;28;20042;-77
2022/06/09 02:41:44;;;;;;;33.83;8.55;;;13.40;99.90;;;;;;4977621;28;21705;-78
2022/06/09 02:44:11;;;;;;;28.80;9.00;;;13.50;99.90;;;;;;4994405;28;20034;-78
2022/06/09 02:46:37;;;;;;;22.02;8.80;;;13.40;99.90;;;;;;4985348;28;20124;-78
2022/06/09 02:49:03;;;;;;;25.98;9.35;;;13.50;99.90;;;;;;4995227;28;20534;-78
2022/06/09 02:51:32;;;;;;;19.45;8.15;;;13.40;99.90;;;;;;4997635;28;20042;-78
2022/06/09 02:54:01;;;;;;;24.70;9.15;;;13.50;99.90;;;;;;4993371;28;20509;-77
2022/06/09 02:56:27;;;;;;;25.60;9.10;;;13.50;99.90;;;;;;4988743;28;20037;-78
2022/06/09 02:58:53;;;;;;;23.98;8.25;;;13.50;99.90;;;;;;4980805;28;20042;-78
2022/06/09 03:01:19;;;;;;;20.98;8.38;;;13.90;99.90;;;;;;4983426;28;20049;-78
2022/06/09 03:03:45;;;;;;;21.60;8.23;;;13.50;99.90;;;;;;4988768;28;20421;-78
2022/06/09 03:06:11;;;;;;;20.65;8.55;;;13.50;99.90;;;;;;4992703;28;20049;-78
2022/06/09 03:08:38;;;;;;;27.17;8.93;;;13.50;99.90;;;;;;4990128;28;20050;-78
2022/06/09 03:11:04;;;;;;;30.10;9.30;;;13.50;99.90;;;;;;5006214;28;20125;-78
2022/06/09 03:13:30;;;;;;;24.17;8.57;;;13.50;99.90;;;;;;4991642;28;20039;-78
2022/06/09 03:15:56;;;;;;;25.02;7.80;;;13.50;99.90;;;;;;4994210;28;20038;-78
2022/06/09 03:18:22;;;;;;;22.77;9.13;;;13.50;99.90;;;;;;4986062;28;20086;-79
2022/06/09 03:20:48;;;;;;;21.73;8.35;;;13.70;99.90;;;;;;4987567;28;20548;-78
2022/06/09 03:23:14;;;;;;;21.83;8.15;;;13.60;99.90;;;;;;5006412;28;20042;-78
2022/06/09 03:25:43;;;;;;;27.02;8.88;;;13.60;99.90;;;;;;4978589;28;20038;-77
2022/06/09 03:28:09;;;;;;;22.52;8.80;;;13.60;99.90;;;;;;4971698;28;20160;-78
2022/06/09 03:30:35;;;;;;;27.35;9.20;;;13.50;99.90;;;;;;4995878;28;20490;-78
2022/06/09 03:33:01;;;;;;;20.55;8.43;;;13.50;99.90;;;;;;4990317;28;20080;-78
2022/06/09 03:35:27;;;;;;;25.75;8.48;;;13.50;99.90;;;;;;4973219;28;20053;-79
2022/06/09 03:37:53;;;;;;;22.33;8.00;;;13.50;99.90;;;;;;4987848;28;20042;-76
2022/06/09 03:40:20;;;;;;;24.52;8.68;;;13.50;99.90;;;;;;5006938;28;20033;-78
2022/06/09 03:42:46;;;;;;;22.23;8.18;;;13.50;99.90;;;;;;5013354;28;20100;-78
2022/06/09 03:45:13;;;;;;;25.35;8.70;;;13.50;99.90;;;;;;4993202;28;20097;-78
2022/06/09 03:47:40;;;;;;;22.70;8.70;;;13.50;99.90;;;;;;4973850;28;20069;-78
2022/06/09 03:50:08;;;;;;;22.67;8.20;;;13.60;99.90;;;;;;4975727;28;20045;-78
2022/06/09 03:52:33;;;;;;;26.45;9.13;;;13.40;99.90;;;;;;4974762;28;20065;-78
2022/06/09 03:54:59;;;;;;;25.08;8.13;;;13.50;99.90;;;;;;4978817;28;20403;-77
2022/06/09 03:57:25;;;;;;;22.63;8.85;;;13.40;99.90;;;;;;5010481;28;20057;-78
2022/06/09 03:59:51;;;;;;;24.13;8.57;;;13.40;99.90;;;;;;4971845;28;20112;-78
2022/06/09 04:02:17;;;;;;;20.58;8.00;;;13.40;99.90;;;;;;5008807;28;20482;-78
2022/06/09 04:04:42;;;;;;;22.30;8.07;;;13.50;99.90;;;;;;5008480;28;20042;-78
2022/06/09 04:07:10;;;;;;;18.95;8.45;;;13.50;99.90;;;;;;5007488;28;20038;-78
2022/06/09 04:09:37;;;;;;;21.77;8.27;;;13.50;99.90;;;;;;4990775;28;20070;-77
2022/06/09 04:12:04;;;;;;;21.95;8.13;;;13.40;99.90;;;;;;4971062;28;20482;-78
2022/06/09 04:14:29;;;;;;;25.60;9.63;;;13.50;99.90;;;;;;4992116;28;20034;-78
2022/06/09 04:16:55;;;;;;;18.73;7.57;;;13.40;99.90;;;;;;4981632;28;20034;-78
2022/06/09 04:19:22;;;;;;;23.75;9.00;;;13.50;99.90;;;;;;4989737;28;20069;-78
2022/06/09 04:21:48;;;;;;;23.33;8.10;;;13.50;99.90;;;;;;4989238;28;20042;-78
2022/06/09 04:24:15;;;;;;;18.63;7.55;;;13.50;99.90;;;;;;4996879;28;20029;-77
2022/06/09 04:26:42;;;;;;;20.40;8.45;;;13.50;99.90;;;;;;4978386;28;20045;-78
2022/06/09 04:29:13;;;;;;;20.23;8.27;;;13.50;99.90;;;;;;4983040;28;20057;-78
2022/06/09 04:31:41;;;;;;;19.77;7.93;;;13.50;99.90;;;;;;4988522;28;20068;-78
2022/06/09 04:34:08;;;;;;;21.20;7.72;;;13.50;99.90;;;;;;5006354;28;20054;-78
2022/06/09 04:36:35;;;;;;;23.70;7.35;;;13.50;99.90;;;;;;4978695;28;20038;-78
2022/06/09 04:39:04;;;;;;;17.02;7.63;;;13.50;99.90;;;;;;4977343;28;20053;-78
2022/06/09 04:41:33;;;;;;;21.52;8.05;;;13.50;99.90;;;;;;4989952;28;20042;-77
2022/06/09 04:43:58;;;;;;;14.40;6.57;;;13.50;99.90;;;;;;4991363;28;20045;-77
2022/06/09 04:46:25;;;;;;;19.48;7.55;;;13.60;99.90;;;;;;4998885;28;20042;-79
2022/06/09 04:48:53;;;;;;;21.67;8.18;;;13.60;99.90;;;;;;5010396;28;20038;-77
2022/06/09 04:51:20;;;;;;;19.55;7.63;;;13.60;99.90;;;;;;5004151;28;20040;-78
2022/06/09 04:53:48;;;;;;;17.38;8.00;;;13.60;99.90;;;;;;4984059;28;20092;-79
2022/06/09 04:56:15;;;;;;;17.50;7.45;;;13.60;99.90;;;;;;5011169;28;20038;-78
2022/06/09 04:58:42;;;;;;;17.15;7.90;;;13.60;99.90;;;;;;4998575;28;20046;-78
2022/06/09 05:01:16;;;;;;;18.95;8.35;;;13.60;99.90;;;;;;4999415;28;20041;-76
2022/06/09 05:03:41;;;;;;;17.63;7.60;;;13.60;99.90;;;;;;4987950;28;20742;-77
2022/06/09 05:06:07;;;;;;;19.48;7.50;;;13.60;99.90;;;;;;4989993;28;20037;-77
2022/06/09 05:08:33;;;;;;;20.00;8.18;;;13.70;99.90;;;;;;5002464;28;20042;-77
2022/06/09 05:10:59;;;;;;;18.13;7.72;;;13.70;99.90;;;;;;4974944;28;20568;-77
2022/06/09 05:13:25;;;;;;;15.27;7.35;;;13.60;99.90;;;;;;4987802;28;20065;-77
2022/06/09 05:15:54;;;;;;;16.58;7.30;;;13.80;99.90;;;;;;4985360;28;20042;-77
2022/06/09 05:18:25;;;;;;;17.67;7.72;;;13.70;99.90;;;;;;4990135;28;20042;-77
2022/06/09 05:20:51;;;;;;;13.50;7.30;;;13.80;99.90;;;;;;4987581;28;20033;-78
2022/06/09 05:23:18;;;;;;;12.30;7.35;;;13.80;99.90;;;;;;4969750;28;20199;-78
2022/06/09 05:25:52;;;;;;;16.42;7.78;;;13.80;99.90;;;;;;5001589;28;20038;-77
2022/06/09 05:28:21;;;;;;;14.68;7.28;;;13.80;99.90;;;;;;4993813;28;20413;-78
2022/06/09 05:30:47;;;;;;;20.58;7.60;;;13.90;99.90;;;;;;4991470;28;20406;-78
2022/06/09 05:33:13;;;;;;;16.55;7.20;;;14.00;99.90;;;;;;5007985;28;20037;-78
2022/06/09 05:35:39;;;;;;;13.07;7.75;;;14.00;99.90;;;;;;4977599;28;20078;-78
2022/06/09 05:46:21;;;;;;;17.88;7.85;;;14.20;99.90;;;;;;4987687;28;20104;-77
2022/06/09 05:48:47;;;;;;;14.23;7.57;;;14.20;99.90;;;;;;4990749;28;20045;-78
2022/06/09 05:51:15;;;;;;;13.88;7.68;;;14.20;99.90;;;;;;4990889;28;20091;-77
2022/06/09 05:53:41;;;;;;;15.65;7.45;;;14.30;99.90;;;;;;4983887;28;20045;-77
2022/06/09 05:56:08;;;;;;;13.68;8.02;;;14.30;99.90;;;;;;4989572;28;20034;-78
2022/06/09 05:58:34;;;;;;;14.55;6.90;;;14.40;99.90;;;;;;5006878;28;20042;-77
2022/06/09 06:01:01;;;;;;;13.30;7.95;;;14.50;99.90;;;;;;4987894;28;20040;-77
2022/06/09 06:03:27;;;;;;;16.17;7.35;;;14.50;99.90;;;;;;5001534;28;20376;-77
2022/06/09 06:08:38;;;;;;;17.42;7.07;;;14.60;99.90;;;;;;4987630;28;20100;-76
2022/06/09 06:11:04;;;;;;;17.67;7.72;;;14.70;99.90;;;;;;5000424;28;20041;-76
2022/06/09 06:13:30;;;;;;;16.15;7.65;;;14.70;99.90;;;;;;4984664;28;20111;-76
2022/06/09 06:15:56;;;;;;;15.50;7.90;;;14.80;99.90;;;;;;4995305;28;20049;-77
2022/06/09 06:18:22;;;;;;;14.30;7.35;;;14.80;99.90;;;;;;5005331;28;20038;-78
2022/06/09 06:20:47;;;;;;;12.52;7.28;;;14.90;99.90;;;;;;5007259;28;20130;-77
2022/06/09 06:23:14;;;;;;;15.85;7.97;;;15.00;99.90;;;;;;4987987;28;20051;-77
2022/06/09 06:25:40;;;;;;;15.07;7.70;;;15.10;99.90;;;;;;4973356;28;20042;-78
2022/06/09 06:28:06;;;;;;;13.38;7.57;;;15.10;99.90;;;;;;5004045;28;20402;-78
2022/06/09 06:30:32;;;;;;;15.40;8.05;;;15.10;99.90;;;;;;4973899;28;20038;-76
2022/06/09 06:32:58;;;;;;;14.68;8.43;;;15.20;99.90;;;;;;5009719;28;20044;-78
2022/06/09 06:35:23;;;;;;;13.27;7.80;;;15.30;99.90;;;;;;4993620;28;20041;-78
2022/06/09 06:37:49;;;;;;;16.23;8.00;;;15.30;99.90;;;;;;4995697;28;20528;-79
2022/06/09 06:40:15;;;;;;;14.70;8.50;;;15.60;99.90;;;;;;4994896;28;20041;-78
2022/06/09 06:42:41;;;;;;;12.88;7.95;;;15.40;99.90;;;;;;4989378;28;20108;-78
2022/06/09 06:45:09;;;;;;;11.15;8.68;;;15.50;99.90;;;;;;4993345;28;20038;-77
2022/06/09 06:47:35;;;;;;;13.93;8.55;;;15.50;99.90;;;;;;5012400;28;20398;-77
2022/06/09 06:50:01;;;;;;;14.75;8.63;;;15.50;99.90;;;;;;4994524;28;20042;-77
2022/06/09 06:52:27;;;;;;;12.63;8.32;;;15.60;99.90;;;;;;4993376;28;20038;-77
2022/06/09 06:54:53;;;;;;;11.13;7.80;;;15.60;99.90;;;;;;4977632;28;20045;-77
2022/06/09 06:57:19;;;;;;;15.57;8.27;;;15.80;99.90;;;;;;5001983;28;20482;-78
2022/06/09 06:59:45;;;;;;;15.10;7.97;;;15.80;99.90;;;;;;4963786;28;20039;-78
2022/06/09 07:02:12;;;;;;;13.30;8.02;;;15.80;99.90;;;;;;4984658;28;20038;-78
2022/06/09 07:04:38;;;;;;;11.20;7.97;;;15.80;99.90;;;;;;4989622;28;20117;-78
2022/06/09 07:07:03;;;;;;;12.73;7.65;;;15.80;99.90;;;;;;5007411;28;20072;-78
2022/06/09 07:09:30;;;;;;;9.98;6.22;;;15.80;99.90;;;;;;4993369;28;20081;-78
2022/06/09 07:11:55;;;;;;;9.68;6.43;;;15.80;99.90;;;;;;4986960;28;20532;-77
2022/06/09 07:14:21;;;;;;;9.38;6.47;;;15.70;99.90;;;;;;4981552;28;20065;-78
2022/06/09 07:16:47;;;;;;;9.93;6.45;;;15.80;99.90;;;;;;5010596;28;20040;-78
2022/06/09 07:19:15;;;;;;;9.38;6.22;;;15.70;99.90;;;;;;5019460;28;20073;-77
2022/06/09 07:21:42;;;;;;;14.57;5.93;;;15.80;99.90;;;;;;4990055;28;20486;-78
2022/06/09 07:24:08;;;;;;;9.65;5.00;;;15.80;99.90;;;;;;4977212;28;20498;-78
2022/06/09 07:26:37;;;;;;;8.00;5.05;;;15.80;99.90;;;;;;4970336;28;20495;-78
2022/06/09 07:29:03;;;;;;;11.70;5.40;;;15.90;99.90;;;;;;4968430;28;20065;-78
2022/06/09 07:31:30;;;;;;;13.57;5.03;;;15.90;99.90;;;;;;4998617;28;20466;-78
2022/06/09 07:33:55;;;;;;;9.32;4.85;;;15.90;99.90;;;;;;4991774;28;20582;-78
2022/06/09 07:36:26;;;;;;;10.95;4.65;;;16.00;99.90;;;;;;5000588;28;20121;-78
2022/06/09 07:38:52;;;;;;;8.65;4.22;;;16.00;99.90;;;;;;4991421;28;20042;-77
2022/06/09 07:41:20;;;;;;;10.95;4.47;;;16.10;99.90;;;;;;5006482;28;20371;-78
2022/06/09 07:43:47;;;;;;;7.75;3.83;;;16.10;99.90;;;;;;4971087;28;20041;-78
2022/06/09 07:46:14;;;;;;;9.93;3.80;;;16.10;99.90;;;;;;4986047;28;20054;-78
2022/06/09 07:48:40;;;;;;;7.60;3.20;;;16.10;99.90;;;;;;4986698;28;20042;-77
2022/06/09 07:51:06;;;;;;;6.60;3.30;;;16.20;99.90;;;;;;4987933;28;20038;-78
2022/06/09 07:53:32;;;;;;;6.75;3.20;;;16.30;99.90;;;;;;4988601;28;20050;-77
2022/06/09 07:55:57;;;;;;;5.15;2.55;;;16.30;99.90;;;;;;4991399;28;20061;-78
2022/06/09 07:58:23;;;;;;;5.50;2.63;;;16.30;99.90;;;;;;4990146;28;20053;-78
2022/06/09 08:00:49;;;;;;;5.95;2.42;;;16.30;99.90;;;;;;5017909;28;20048;-78
2022/06/09 08:03:26;;;;;;;5.45;2.50;;;16.40;99.90;;;;;;4997675;28;20050;-79
2022/06/09 08:05:52;;;;;;;9.38;2.95;;;16.60;99.90;;;;;;4977063;28;20041;-78
2022/06/09 08:08:19;;;;;;;9.55;2.50;;;16.60;99.90;;;;;;4977965;28;20379;-78
2022/06/09 08:10:45;;;;;;;4.85;2.10;;;16.70;99.90;;;;;;5008603;28;20352;-78
2022/06/09 08:13:12;;;;;;;4.78;1.90;;;16.80;99.90;;;;;;4991782;28;20057;-78
2022/06/09 08:15:40;;;;;;;7.65;2.08;;;16.90;99.90;;;;;;4961920;28;20093;-78
2022/06/09 08:18:07;;;;;;;6.97;2.20;;;17.00;99.90;;;;;;4977764;28;20038;-77
2022/06/09 08:20:35;;;;;;;5.88;2.03;;;17.20;99.90;;;;;;4989114;28;20065;-77
2022/06/09 08:23:10;;;;;;;6.40;2.00;;;17.20;99.90;;;;;;4991907;28;20124;-78
2022/06/09 08:25:38;;;;;;;4.35;1.80;;;17.30;99.90;;;;;;4990359;28;20092;-79
2022/06/09 08:28:04;;;;;;;7.22;2.20;;;17.30;99.90;;;;;;4986137;28;20034;-77
2022/06/09 08:30:33;;;;;;;5.57;2.00;;;17.60;99.90;;;;;;5007720;28;20113;-77
2022/06/09 08:33:00;;;;;;;5.57;1.95;;;17.70;99.90;;;;;;5004506;28;20038;-78
2022/06/09 08:35:27;;;;;;;6.13;1.80;;;17.80;99.90;;;;;;5010827;28;20088;-78
2022/06/09 08:37:54;;;;;;;3.97;1.73;;;17.90;99.90;;;;;;4970031;28;20053;-79
2022/06/09 08:40:31;;;;;;;7.97;2.00;;;17.90;99.90;;;;;;5007439;28;20034;-78
2022/06/09 08:43:15;;;;;;;5.63;1.90;;;18.00;99.90;;;;;;4994586;28;20096;-78
2022/06/09 08:45:44;;;;;;;5.97;2.15;;;18.20;99.90;;;;;;5015108;28;20038;-78
2022/06/09 08:48:16;;;;;;;6.32;1.83;;;18.60;99.90;;;;;;5010730;28;20042;-79
2022/06/09 08:50:52;;;;;;;5.78;1.50;;;18.90;99.90;;;;;;5008373;28;20042;-79
2022/06/09 08:53:25;;;;;;;3.85;1.65;;;19.20;99.90;;;;;;4973773;28;20034;-79
2022/06/09 08:56:21;;;;;;;7.82;2.00;;;19.30;99.90;;;;;;4988260;28;20045;-79
2022/06/09 08:59:12;;;;;;;5.25;1.73;;;19.20;99.90;;;;;;4972838;28;20105;-78
2022/06/09 09:01:44;;;;;;;7.18;1.70;;;19.30;99.90;;;;;;4990606;28;20049;-79
2022/06/09 09:04:23;;;;;;;4.65;1.73;;;19.50;99.90;;;;;;4987583;28;20499;-79
2022/06/09 09:07:10;;;;;;;3.90;1.67;;;19.70;99.90;;;;;;4977331;28;20502;-79
2022/06/09 09:09:37;;;;;;;6.78;1.90;;;19.90;99.90;;;;;;4991103;28;20173;-77
2022/06/09 09:12:08;;;;;;;3.63;1.38;;;20.00;99.90;;;;;;4997535;28;20065;-79
2022/06/09 09:14:40;;;;;;;5.22;1.52;;;20.00;99.90;;;;;;4986697;28;20046;-79
2022/06/09 09:17:27;;;;;;;4.07;1.33;;;20.00;99.90;;;;;;4987003;28;20041;-77
2022/06/09 09:20:00;;;;;;;6.93;1.52;;;20.00;99.90;;;;;;5017515;28;20088;-79
2022/06/09 09:23:01;;;;;;;5.55;1.60;;;20.10;99.90;;;;;;4988114;28;20040;-79
2022/06/09 09:25:48;;;;;;;5.20;1.80;;;20.30;99.90;;;;;;4975659;28;20041;-78
2022/06/09 09:28:22;;;;;;;5.07;1.30;;;20.40;99.90;;;;;;4990795;28;20045;-78
2022/06/09 09:30:50;;;;;;;6.22;1.50;;;20.50;99.90;;;;;;5014145;28;20048;-79
2022/06/09 09:33:19;;;;;;;5.68;1.60;;;20.60;99.90;;;;;;4983633;28;20428;-78
2022/06/09 09:35:48;;;;;;;7.30;1.30;;;20.70;99.90;;;;;;4988329;28;20397;-78
2022/06/09 09:38:18;;;;;;;4.20;1.60;;;20.90;99.90;;;;;;4983892;28;20062;-79
2022/06/09 09:40:56;;;;;;;6.28;1.67;;;20.90;99.90;;;;;;4996235;28;20053;-78
2022/06/09 09:43:26;;;;;;;4.85;1.75;;;20.90;99.90;;;;;;4998203;28;20045;-80
2022/06/09 09:45:55;;;;;;;4.93;1.30;;;21.00;99.90;;;;;;5001656;28;20084;-78
2022/06/09 09:48:20;;;;;;;5.93;1.42;;;21.10;99.90;;;;;;4983152;28;20038;-80
2022/06/09 09:51:06;;;;;;;5.32;1.90;;;21.20;99.90;;;;;;5008226;28;20073;-79
2022/06/09 09:53:47;;;;;;;5.43;1.30;;;21.30;99.90;;;;;;4972692;28;20034;-77
2022/06/09 09:56:15;;;;;;;4.97;1.27;;;21.30;99.90;;;;;;4997389;28;20050;-79
2022/06/09 09:58:47;;;;;;;5.03;1.30;;;21.30;99.90;;;;;;4993887;28;20042;-76
2022/06/09 10:01:24;;;;;;;4.10;1.58;;;21.40;99.90;;;;;;5005411;28;20041;-77
2022/06/09 10:09:43;;;;;;;2.78;1.10;;;22.00;99.90;;;;;;5011714;28;20037;-75
2022/06/09 10:12:29;;;;;;;3.55;1.40;;;22.00;99.90;;;;;;4985662;28;20045;-75
2022/06/09 10:14:56;;;;;;;3.80;1.25;;;22.10;99.90;;;;;;4983110;28;20038;-75
2022/06/09 10:17:54;;;;;;;4.72;1.25;;;22.10;99.90;;;;;;4974636;28;20123;-76
2022/06/09 10:20:26;;;;;;;5.57;1.45;;;22.00;99.90;;;;;;4987813;28;20610;-76
2022/06/09 10:23:10;;;;;;;3.22;1.08;;;22.10;99.90;;;;;;4970547;28;20050;-76
2022/06/09 10:25:51;;;;;;;4.22;1.23;;;22.30;99.90;;;;;;4983376;28;20062;-76
2022/06/09 10:28:16;;;;;;;3.95;1.23;;;22.50;99.90;;;;;;4990849;28;20042;-76
2022/06/09 10:30:59;;;;;;;3.38;1.20;;;22.40;99.90;;;;;;5010747;28;20577;-76
2022/06/09 10:33:34;;;;;;;5.30;1.35;;;22.40;99.90;;;;;;4997155;28;20044;-77
2022/06/09 10:36:07;;;;;;;2.00;1.00;;;22.40;99.90;;;;;;4978004;28;20497;-77
2022/06/09 10:38:39;;;;;;;4.82;1.35;;;22.50;99.90;;;;;;5005346;28;20425;-77
2022/06/09 10:41:11;;;;;;;3.85;1.00;;;22.60;99.10;;;;;;4987309;28;20045;-76
2022/06/09 10:44:13;;;;;;;2.88;1.08;;;22.70;99.20;;;;;;5007282;28;20088;-77
2022/06/09 10:55:35;;;;;;;2.08;0.90;;;23.20;97.00;;;;;;4989812;28;20056;-76
2022/06/09 10:58:16;;;;;;;;;;;23.20;96.50;;;;;;4986902;28;20041;-76
2022/06/09 11:00:48;;;;;;;2.90;1.10;;;23.20;96.00;;;;;;4993573;28;19917;-77
2022/06/09 11:03:22;;;;;;;2.47;1.00;;;23.30;96.30;;;;;;4995596;28;20041;-78
2022/06/09 11:06:15;;;;;;;3.22;1.15;;;23.30;95.60;;;;;;4975316;28;20089;-77
2022/06/09 11:09:01;;;;;;;5.20;1.50;;;23.40;93.80;;;;;;4998731;28;20034;-78
2022/06/09 11:12:05;;;;;;;3.63;1.55;;;23.40;95.30;;;;;;4985921;28;20038;-80
2022/06/09 11:14:54;;;;;;;2.95;1.20;;;23.50;93.90;;;;;;4986902;28;20048;-78
2022/06/09 11:17:28;;;;;;;4.90;1.50;;;23.50;94.00;;;;;;4984112;28;20486;-81
2022/06/09 11:20:03;;;;;;;2.85;1.02;;;23.60;94.30;;;;;;4993747;28;20133;-77
2022/06/09 11:22:47;;;;;;;3.80;1.48;;;23.60;95.20;;;;;;4985744;28;20623;-77
2022/06/09 11:25:23;;;;;;;4.03;1.20;;;23.50;93.60;;;;;;4987474;28;20444;-77
2022/06/09 11:28:12;;;;;;;5.10;1.50;;;23.50;93.30;;;;;;4979006;28;20073;-77
2022/06/09 11:31:22;;;;;;;6.15;1.75;;;23.60;93.20;;;;;;4993380;28;20045;-77
2022/06/09 11:34:13;;;;;;;4.97;1.45;;;23.70;92.10;;;;;;4969697;28;20137;-77
2022/06/09 11:37:07;;;;;;;8.60;1.67;;;23.60;91.90;;;;;;4986950;28;20042;-77
2022/06/09 11:39:51;;;;;;;4.30;1.33;;;23.50;92.50;;;;;;4959180;28;20421;-77
2022/06/09 11:42:49;;;;;;;4.20;1.50;;;23.40;92.80;;;;;;5004502;28;20131;-77
2022/06/09 11:45:30;;;;;;;5.10;1.80;;;23.50;90.60;;;;;;4965633;28;20030;-76
2022/06/09 11:47:59;;;;;;;5.43;1.50;;;23.50;90.90;;;;;;4978766;28;20042;-76
2022/06/09 11:50:41;;;;;;;3.63;1.30;;;23.50;92.00;;;;;;4994959;28;20054;-77
2022/06/09 11:53:11;;;;;;;4.45;1.25;;;23.50;92.10;;;;;;5007430;28;20442;-77
2022/06/09 11:55:58;;;;;;;4.60;1.48;;;23.60;92.70;;;;;;4981408;28;20483;-77
2022/06/09 11:58:35;;;;;;;4.15;1.38;;;23.70;92.70;;;;;;4989589;28;20034;-77
2022/06/09 12:01:18;;;;;;;5.43;1.60;;;23.90;92.60;;;;;;4975747;28;20448;-77
2022/06/09 12:04:12;;;;;;;6.70;1.30;;;24.10;91.10;;;;;;4982182;28;20056;-77
2022/06/09 12:07:06;;;;;;;5.38;1.30;;;24.10;91.10;;;;;;4988204;28;20530;-77
2022/06/09 12:09:44;;;;;;;4.57;1.52;;;24.00;90.10;;;;;;4981951;28;20046;-77
2022/06/09 12:12:33;;;;;;;4.65;1.50;;;24.00;90.20;;;;;;4993275;28;20044;-77
2022/06/09 12:15:15;;;;;;;4.07;1.13;;;23.90;90.80;;;;;;4997721;28;20041;-77
2022/06/09 12:18:24;;;;;;;5.35;1.40;;;23.70;90.30;;;;;;4977810;28;20042;-76
2022/06/09 12:20:49;;;;;;;5.32;1.38;;;23.70;89.40;;;;;;4965607;28;20049;-77
2022/06/09 12:23:36;;;;;;;4.43;1.40;;;23.70;90.30;;;;;;4983085;28;20030;-77
2022/06/09 12:26:16;;;;;;;4.60;1.50;;;23.70;90.20;;;;;;4976314;28;20259;-76
2022/06/09 12:28:57;;;;;;;3.78;1.27;;;23.70;89.20;;;;;;5008738;28;20096;-76
2022/06/09 12:31:26;;;;;;;4.20;1.17;;;23.60;88.00;;;;;;5001528;28;20487;-76
2022/06/09 12:34:11;;;;;;;5.05;1.42;;;23.50;89.70;;;;;;4985965;28;20059;-77
2022/06/09 12:36:49;;;;;;;4.15;1.70;;;23.40;90.10;;;;;;5002175;28;20505;-77
2022/06/09 12:39:28;;;;;;;6.85;1.80;;;23.50;89.60;;;;;;4993356;28;20081;-77
2022/06/09 12:42:01;;;;;;;5.30;1.55;;;23.50;90.00;;;;;;5002197;28;20052;-76
2022/06/09 12:44:42;;;;;;;8.13;1.50;;;23.50;87.90;;;;;;4977680;28;20402;-76
2022/06/09 12:47:17;;;;;;;5.05;1.85;;;23.20;88.50;;;;;;4981148;28;20056;-76
2022/06/09 12:49:46;;;;;;;6.30;1.65;;;23.20;88.50;;;;;;4969723;28;20096;-76
2022/06/09 12:52:32;;;;;;;4.53;1.55;;;23.20;88.80;;;;;;4994588;28;20041;-76
2022/06/09 12:55:00;;;;;;;5.30;1.52;;;23.20;88.30;;;;;;4998571;28;20406;-76
2022/06/09 12:57:30;;;;;;;6.53;1.70;;;23.30;87.90;;;;;;5000471;28;20517;-76
2022/06/09 13:00:16;;;;;;;6.80;1.50;;;23.40;88.70;;;;;;4972484;28;20440;-76
2022/06/09 13:02:42;;;;;;;7.00;1.77;;;23.40;87.70;;;;;;4984890;28;20089;-76
2022/06/09 13:05:27;;;;;;;4.95;1.73;;;23.50;87.70;;;;;;5009501;28;20034;-76
2022/06/09 13:08:04;;;;;;;4.85;1.60;;;23.60;87.80;;;;;;4985927;28;20172;-77
2022/06/09 13:10:38;;;;;;;4.75;1.75;;;23.70;87.10;;;;;;4987564;28;20042;-77
2022/06/09 13:13:16;;;;;;;5.50;1.63;;;23.70;85.70;;;;;;4996394;28;20046;-76
2022/06/09 13:15:48;;;;;;;5.63;1.52;;;23.70;85.30;;;;;;4965880;28;20046;-76
2022/06/09 13:18:21;;;;;;;7.07;2.05;;;23.60;84.50;;;;;;4968566;28;20108;-76
2022/06/09 13:20:59;;;;;;;6.30;2.03;;;23.60;84.10;;;;;;4977862;28;20249;-76
2022/06/09 13:23:28;;;;;;;5.72;1.60;;;23.70;84.40;;;;;;4993320;28;20037;-76
2022/06/09 13:25:54;;;;;;;2.88;1.40;;;23.80;83.40;;;;;;4993401;28;20045;-76
2022/06/09 13:28:37;;;;;;;4.88;1.65;;;23.80;83.60;;;;;;5006526;28;20046;-76
2022/06/09 13:31:29;;;;;;;6.65;1.70;;;24.00;83.80;;;;;;4990066;28;20037;-76